Time;durP1;ratioP1;P1;durP2;ratioP2;P2;SDS_P1;SDS_P2;PMS_P1;PMS_P2;Temp;Humidity;BMP_temperature;BMP_pressure;BME280_temperature;BME280_humidity;BME280_pressure;Samples;Min_cycle;Max_cycle;Signal;HPM_P1;HPM_P2
2021/03/07 00:00:16;;;;;;;14.93;7.57;;;1.30;99.90;;;;;;5077622;28;20023;-70
2021/03/07 00:02:42;;;;;;;15.95;7.22;;;1.30;99.90;;;;;;5064332;28;20025;-67
2021/03/07 00:05:09;;;;;;;13.02;6.55;;;1.30;99.90;;;;;;5072443;28;20032;-66
2021/03/07 00:07:35;;;;;;;15.75;7.13;;;1.30;99.90;;;;;;5060753;28;20048;-68
2021/03/07 00:10:03;;;;;;;12.02;6.45;;;1.30;99.90;;;;;;5080683;28;20119;-70
2021/03/07 00:12:29;;;;;;;17.80;7.53;;;1.30;99.90;;;;;;5052941;28;20031;-68
2021/03/07 00:14:54;;;;;;;14.65;6.68;;;1.30;99.90;;;;;;5065717;28;20390;-66
2021/03/07 00:17:20;;;;;;;14.80;7.28;;;1.30;99.90;;;;;;5072392;28;20021;-66
2021/03/07 00:19:46;;;;;;;15.80;6.90;;;1.30;99.90;;;;;;5064215;28;20102;-68
2021/03/07 00:22:12;;;;;;;16.05;6.80;;;1.30;99.90;;;;;;5056206;28;20029;-66
2021/03/07 00:24:37;;;;;;;19.13;7.32;;;1.30;99.90;;;;;;5067629;28;20027;-67
2021/03/07 00:27:03;;;;;;;10.43;6.38;;;1.30;99.90;;;;;;5068043;28;20016;-70
2021/03/07 00:29:28;;;;;;;14.18;6.45;;;1.30;99.90;;;;;;5052002;28;20101;-65
2021/03/07 00:31:54;;;;;;;16.05;6.88;;;1.30;99.90;;;;;;5052221;28;20115;-68
2021/03/07 00:34:21;;;;;;;15.02;7.13;;;1.30;99.90;;;;;;5053698;28;20037;-70
2021/03/07 00:36:47;;;;;;;10.85;7.10;;;1.30;99.90;;;;;;5068114;28;20017;-67
2021/03/07 00:39:13;;;;;;;12.00;6.60;;;1.30;99.90;;;;;;5072464;28;20030;-66
2021/03/07 00:41:38;;;;;;;12.43;6.72;;;1.30;99.90;;;;;;5074412;28;20898;-65
2021/03/07 00:44:08;;;;;;;15.77;7.22;;;1.30;99.90;;;;;;5060284;28;20040;-67
2021/03/07 00:46:35;;;;;;;12.60;6.68;;;1.30;99.90;;;;;;5059979;28;20060;-67
2021/03/07 00:49:01;;;;;;;15.05;7.07;;;1.30;99.90;;;;;;5073861;28;20024;-68
2021/03/07 00:51:26;;;;;;;15.32;7.78;;;1.30;99.90;;;;;;5056229;28;20036;-69
2021/03/07 00:53:52;;;;;;;15.13;7.03;;;1.20;99.90;;;;;;5040321;28;20055;-67
2021/03/07 00:56:17;;;;;;;15.70;6.82;;;1.20;99.90;;;;;;5070002;28;20108;-67
2021/03/07 00:58:43;;;;;;;14.48;7.07;;;1.20;99.90;;;;;;5053088;28;20040;-69
2021/03/07 01:01:08;;;;;;;19.10;8.15;;;1.20;99.90;;;;;;5073376;28;20040;-68
2021/03/07 01:03:34;;;;;;;18.40;6.85;;;1.30;99.90;;;;;;5074334;28;20029;-67
2021/03/07 01:06:00;;;;;;;21.25;8.23;;;1.20;99.90;;;;;;5071824;28;20525;-66
2021/03/07 01:08:25;;;;;;;16.15;8.30;;;1.20;99.90;;;;;;5053707;28;20358;-66
2021/03/07 01:10:51;;;;;;;12.65;7.63;;;1.20;99.90;;;;;;5053846;28;20071;-66
2021/03/07 01:13:21;;;;;;;18.35;8.55;;;1.20;99.90;;;;;;5069845;28;20025;-67
2021/03/07 01:15:47;;;;;;;18.67;8.93;;;1.20;99.90;;;;;;5050486;28;20116;-68
2021/03/07 01:18:13;;;;;;;16.70;7.63;;;1.20;99.90;;;;;;5051336;28;20372;-70
2021/03/07 01:20:40;;;;;;;17.88;8.43;;;1.20;99.90;;;;;;5072576;28;20361;-67
2021/03/07 01:23:06;;;;;;;19.20;8.40;;;1.20;99.90;;;;;;5068653;28;20487;-66
2021/03/07 01:25:32;;;;;;;16.77;9.02;;;1.20;99.90;;;;;;5067387;28;20032;-68
2021/03/07 01:28:03;;;;;;;23.33;8.70;;;1.20;99.90;;;;;;5048046;28;20033;-68
2021/03/07 01:30:31;;;;;;;16.58;8.57;;;1.20;99.90;;;;;;5049411;28;20551;-67
2021/03/07 01:32:57;;;;;;;13.77;8.07;;;1.20;99.90;;;;;;5044312;28;20028;-69
2021/03/07 01:35:23;;;;;;;16.00;7.78;;;1.20;99.90;;;;;;5054176;28;20112;-67
2021/03/07 01:37:49;;;;;;;16.83;8.75;;;1.20;99.90;;;;;;5070863;28;20024;-69
2021/03/07 01:40:18;;;;;;;13.05;8.55;;;1.20;99.90;;;;;;5048467;28;20028;-69
2021/03/07 01:42:48;;;;;;;19.00;8.30;;;1.20;99.90;;;;;;5069815;28;20024;-68
2021/03/07 01:45:21;;;;;;;21.48;7.90;;;1.20;99.90;;;;;;5091845;28;20036;-66
2021/03/07 01:47:49;;;;;;;16.08;8.02;;;1.20;99.90;;;;;;5073423;28;20016;-68
2021/03/07 01:50:17;;;;;;;18.00;8.00;;;1.20;99.90;;;;;;5070304;28;20067;-67
2021/03/07 01:52:43;;;;;;;21.40;9.40;;;1.30;99.90;;;;;;5070855;28;20020;-68
2021/03/07 01:55:10;;;;;;;12.63;8.00;;;1.20;99.90;;;;;;5065128;28;20354;-66
2021/03/07 01:57:37;;;;;;;14.95;8.45;;;1.30;99.90;;;;;;5064892;28;20225;-68
2021/03/07 02:00:06;;;;;;;15.95;9.38;;;1.30;99.90;;;;;;5052247;28;20052;-66
2021/03/07 02:02:32;;;;;;;18.33;8.75;;;1.30;99.90;;;;;;5067850;28;20017;-67
2021/03/07 02:04:58;;;;;;;16.20;8.70;;;1.30;99.90;;;;;;5065542;28;20020;-69
2021/03/07 02:07:24;;;;;;;16.70;9.15;;;1.20;99.90;;;;;;5056340;28;20083;-67
2021/03/07 02:09:51;;;;;;;12.60;8.50;;;1.20;99.90;;;;;;5077302;28;20050;-68
2021/03/07 02:12:22;;;;;;;24.00;9.40;;;1.10;99.90;;;;;;5079088;28;20047;-67
2021/03/07 02:14:52;;;;;;;25.80;10.15;;;1.10;99.90;;;;;;5077112;28;20021;-69
2021/03/07 02:17:19;;;;;;;13.60;8.48;;;1.10;99.90;;;;;;5029462;28;20052;-66
2021/03/07 02:19:45;;;;;;;18.27;8.77;;;1.10;99.90;;;;;;5068534;28;20016;-69
2021/03/07 02:22:17;;;;;;;17.23;9.65;;;1.10;99.90;;;;;;5070055;28;20624;-66
2021/03/07 02:24:43;;;;;;;20.70;9.95;;;1.10;99.90;;;;;;5067201;28;20109;-68
2021/03/07 02:27:08;;;;;;;17.38;9.32;;;1.10;99.90;;;;;;5072413;28;20591;-66
2021/03/07 02:29:34;;;;;;;19.90;10.43;;;1.10;99.90;;;;;;5069753;28;20127;-67
2021/03/07 02:32:17;;;;;;;28.77;9.57;;;1.20;99.90;;;;;;5070789;28;20029;-66
2021/03/07 02:35:08;;;;;;;20.35;9.40;;;1.10;99.90;;;;;;5069671;28;20481;-67
2021/03/07 02:37:37;;;;;;;24.95;10.25;;;1.10;99.90;;;;;;5063897;28;20029;-65
2021/03/07 02:40:04;;;;;;;20.52;10.00;;;1.10;99.90;;;;;;5062070;28;20521;-67
2021/03/07 02:42:32;;;;;;;18.33;9.43;;;1.10;99.90;;;;;;5069776;28;20078;-69
2021/03/07 02:45:05;;;;;;;18.75;10.07;;;1.00;99.90;;;;;;5071009;28;20070;-67
2021/03/07 02:47:31;;;;;;;;;;;0.80;99.90;;;;;;5070063;28;20028;-65
2021/03/07 02:50:01;;;;;;;17.75;9.25;;;0.70;99.90;;;;;;5069176;28;19938;-68
2021/03/07 02:52:27;;;;;;;14.63;9.07;;;0.70;99.90;;;;;;5069336;28;20021;-71
2021/03/07 02:54:56;;;;;;;18.77;9.65;;;0.70;99.90;;;;;;5070482;28;20029;-66
2021/03/07 02:57:25;;;;;;;22.30;10.32;;;0.70;99.90;;;;;;5083979;28;20032;-67
2021/03/07 02:59:52;;;;;;;20.13;11.27;;;0.60;99.90;;;;;;5070057;28;20472;-70
2021/03/07 03:02:19;;;;;;;23.25;9.88;;;0.60;99.90;;;;;;5042344;28;20047;-70
2021/03/07 03:04:46;;;;;;;16.75;8.88;;;0.70;99.90;;;;;;5049518;28;20028;-69
2021/03/07 03:07:14;;;;;;;22.77;10.07;;;0.70;99.90;;;;;;5058931;28;20048;-66
2021/03/07 03:09:40;;;;;;;24.92;10.52;;;0.70;99.90;;;;;;5066470;28;20068;-67
2021/03/07 03:12:07;;;;;;;20.40;10.32;;;0.60;99.90;;;;;;5069696;28;20692;-66
2021/03/07 03:14:33;;;;;;;16.10;9.63;;;0.60;99.90;;;;;;5067571;28;20389;-66
2021/03/07 03:17:00;;;;;;;18.33;10.10;;;0.70;99.90;;;;;;5055451;28;20047;-65
2021/03/07 03:19:29;;;;;;;23.63;10.85;;;0.60;99.90;;;;;;5035029;28;20029;-71
2021/03/07 03:21:56;;;;;;;19.90;11.02;;;0.60;99.90;;;;;;5051186;28;20429;-69
2021/03/07 03:24:22;;;;;;;17.30;10.00;;;0.60;99.90;;;;;;5068485;28;20020;-69
2021/03/07 03:26:49;;;;;;;21.52;10.20;;;0.50;99.90;;;;;;5068986;28;20017;-69
2021/03/07 03:29:14;;;;;;;22.95;10.02;;;0.60;99.90;;;;;;5068141;28;20059;-69
2021/03/07 03:31:40;;;;;;;21.67;10.32;;;0.50;99.90;;;;;;5069094;28;20028;-69
2021/03/07 03:34:08;;;;;;;21.42;10.18;;;0.50;99.90;;;;;;5062927;28;20401;-68
2021/03/07 03:36:36;;;;;;;17.77;9.48;;;0.40;99.90;;;;;;5050139;28;20024;-68
2021/03/07 03:39:10;;;;;;;26.70;10.82;;;0.40;99.90;;;;;;5065838;28;20416;-69
2021/03/07 03:41:37;;;;;;;16.60;9.50;;;0.40;99.90;;;;;;5069180;28;20052;-68
2021/03/07 03:44:08;;;;;;;24.92;10.35;;;0.40;99.90;;;;;;5069481;28;20074;-69
2021/03/07 03:46:38;;;;;;;22.52;10.32;;;0.30;99.90;;;;;;5069229;28;20028;-69
2021/03/07 03:49:13;;;;;;;21.52;10.50;;;0.40;99.90;;;;;;5068568;28;20071;-64
2021/03/07 03:51:42;;;;;;;21.48;10.38;;;0.40;99.90;;;;;;5062104;28;20043;-66
2021/03/07 03:54:09;;;;;;;17.30;9.32;;;0.40;99.90;;;;;;5069167;28;20031;-68
2021/03/07 03:56:36;;;;;;;17.85;9.68;;;0.40;99.90;;;;;;5075621;28;20107;-67
2021/03/07 03:59:03;;;;;;;18.08;9.02;;;0.40;99.90;;;;;;5056590;28;20044;-66
2021/03/07 04:01:31;;;;;;;19.90;10.30;;;0.30;99.90;;;;;;5049399;28;20024;-67
2021/03/07 04:04:01;;;;;;;22.75;10.10;;;0.30;99.90;;;;;;5076480;28;20056;-67
2021/03/07 04:06:27;;;;;;;25.27;9.68;;;0.30;99.90;;;;;;5068058;28;20045;-67
2021/03/07 04:08:53;;;;;;;16.27;9.93;;;0.40;99.90;;;;;;5068667;28;20048;-66
2021/03/07 04:11:21;;;;;;;17.73;9.90;;;0.40;99.90;;;;;;5069001;28;20013;-68
2021/03/07 04:13:46;;;;;;;19.05;9.27;;;0.40;99.90;;;;;;5064989;28;20499;-64
2021/03/07 04:16:13;;;;;;;15.32;9.50;;;0.40;99.90;;;;;;5070233;28;20028;-66
2021/03/07 04:18:40;;;;;;;18.40;10.32;;;0.50;99.90;;;;;;5069544;28;20017;-66
2021/03/07 04:21:07;;;;;;;16.98;9.77;;;0.50;99.90;;;;;;5064194;28;20044;-66
2021/03/07 04:23:33;;;;;;;17.58;9.50;;;0.50;99.90;;;;;;5067600;28;20355;-66
2021/03/07 04:25:59;;;;;;;17.92;9.57;;;0.50;99.90;;;;;;5057962;28;20234;-68
2021/03/07 04:28:25;;;;;;;17.85;9.80;;;0.60;99.90;;;;;;5062726;28;20028;-66
2021/03/07 04:30:52;;;;;;;16.45;10.07;;;0.50;99.90;;;;;;5068275;28;20485;-65
2021/03/07 04:33:18;;;;;;;17.83;10.02;;;0.70;99.90;;;;;;5067660;28;20103;-68
2021/03/07 04:35:44;;;;;;;19.08;9.95;;;0.60;99.90;;;;;;5049459;28;20428;-68
2021/03/07 04:38:10;;;;;;;16.88;10.38;;;0.60;99.90;;;;;;5068042;28;20034;-66
2021/03/07 04:40:37;;;;;;;18.42;9.65;;;0.50;99.90;;;;;;5066103;28;20094;-66
2021/03/07 04:43:05;;;;;;;22.42;11.02;;;0.50;99.90;;;;;;5069815;28;20366;-66
2021/03/07 04:45:31;;;;;;;25.58;10.45;;;0.50;99.90;;;;;;5062930;28;20070;-66
2021/03/07 04:47:56;;;;;;;14.75;9.90;;;0.50;99.90;;;;;;5063888;28;20112;-67
2021/03/07 04:50:22;;;;;;;17.55;9.75;;;0.60;99.90;;;;;;5060310;28;20112;-68
2021/03/07 04:52:48;;;;;;;16.88;9.75;;;0.60;99.90;;;;;;5064781;28;20021;-67
2021/03/07 04:55:14;;;;;;;15.13;9.32;;;0.80;99.90;;;;;;5048269;28;20038;-66
2021/03/07 04:57:40;;;;;;;23.08;10.55;;;0.80;99.90;;;;;;5050701;28;20020;-67
2021/03/07 05:00:09;;;;;;;17.35;9.25;;;0.80;99.90;;;;;;5045727;28;20031;-67
2021/03/07 05:02:35;;;;;;;14.85;8.60;;;0.90;99.90;;;;;;5065623;28;20028;-67
2021/03/07 05:05:01;;;;;;;18.70;9.60;;;0.90;99.90;;;;;;5065785;28;20086;-66
2021/03/07 05:07:27;;;;;;;18.02;9.93;;;0.90;99.90;;;;;;5061237;28;20048;-68
2021/03/07 05:09:54;;;;;;;16.70;8.85;;;1.00;99.90;;;;;;5062603;28;20038;-67
2021/03/07 05:12:20;;;;;;;15.60;9.18;;;1.00;99.90;;;;;;5047150;28;20051;-67
2021/03/07 05:14:45;;;;;;;17.40;9.95;;;1.00;99.90;;;;;;5064721;28;20469;-69
2021/03/07 05:17:11;;;;;;;18.38;9.48;;;1.00;99.90;;;;;;5042603;28;20135;-69
2021/03/07 05:19:37;;;;;;;15.40;9.00;;;1.10;99.90;;;;;;5064020;28;20025;-65
2021/03/07 05:22:02;;;;;;;16.77;8.80;;;1.20;99.90;;;;;;5049353;28;20053;-66
2021/03/07 05:24:28;;;;;;;18.35;9.38;;;1.20;99.90;;;;;;5068930;28;20061;-66
2021/03/07 05:26:53;;;;;;;14.93;8.95;;;1.20;99.90;;;;;;5063567;28;20043;-68
2021/03/07 05:29:19;;;;;;;12.18;7.85;;;1.30;99.90;;;;;;5069653;28;20389;-66
2021/03/07 05:31:44;;;;;;;15.95;9.48;;;1.50;99.90;;;;;;5078337;28;20392;-66
2021/03/07 05:34:10;;;;;;;15.63;9.82;;;1.70;99.90;;;;;;5087633;28;20031;-65
2021/03/07 05:36:36;;;;;;;16.33;9.43;;;1.80;99.90;;;;;;5070985;28;20024;-66
2021/03/07 05:39:02;;;;;;;17.23;9.93;;;1.70;99.90;;;;;;5080666;28;20013;-67
2021/03/07 05:41:28;;;;;;;22.52;9.48;;;1.80;99.90;;;;;;5076476;28;20049;-68
2021/03/07 05:43:54;;;;;;;21.75;11.43;;;1.80;99.90;;;;;;5073899;28;20058;-68
2021/03/07 05:46:20;;;;;;;28.90;12.68;;;1.80;99.90;;;;;;5083806;28;20117;-68
2021/03/07 05:48:45;;;;;;;27.63;14.52;;;1.80;99.90;;;;;;5066832;28;20037;-65
2021/03/07 05:51:16;;;;;;;20.00;12.70;;;1.80;99.90;;;;;;5070152;28;20492;-66
2021/03/07 05:53:50;;;;;;;23.65;13.23;;;1.80;99.90;;;;;;5079504;28;20082;-68
2021/03/07 05:56:16;;;;;;;23.92;13.93;;;1.90;99.90;;;;;;5069052;28;20661;-68
2021/03/07 05:58:42;;;;;;;23.75;13.50;;;1.90;99.90;;;;;;5075091;28;20036;-66
2021/03/07 06:01:08;;;;;;;25.95;13.65;;;2.00;99.90;;;;;;5053433;28;20028;-66
2021/03/07 06:03:34;;;;;;;24.60;14.85;;;2.10;99.90;;;;;;5052230;28;20036;-67
2021/03/07 06:05:59;;;;;;;23.90;14.80;;;2.10;99.90;;;;;;5069535;28;20095;-67
2021/03/07 06:08:25;;;;;;;32.65;15.82;;;2.10;99.90;;;;;;5091277;28;20123;-67
2021/03/07 06:10:50;;;;;;;22.35;14.73;;;2.10;99.90;;;;;;5068530;28;20520;-66
2021/03/07 06:13:16;;;;;;;28.60;15.45;;;2.10;99.90;;;;;;5086925;28;20060;-67
2021/03/07 06:15:44;;;;;;;22.48;14.25;;;2.20;99.90;;;;;;5084350;28;20497;-67
2021/03/07 06:18:40;;;;;;;24.67;14.50;;;2.20;99.90;;;;;;5071528;28;20020;-68
2021/03/07 06:21:28;;;;;;;28.13;15.18;;;2.20;99.90;;;;;;5070103;28;20029;-67
2021/03/07 06:23:54;;;;;;;27.30;15.32;;;2.20;99.90;;;;;;5052910;28;20063;-66
2021/03/07 06:26:20;;;;;;;27.85;15.38;;;2.20;99.90;;;;;;5057269;28;20060;-69
2021/03/07 06:28:45;;;;;;;25.33;15.52;;;2.20;99.90;;;;;;5044180;28;20087;-64
2021/03/07 06:31:31;;;;;;;20.70;13.15;;;2.20;99.90;;;;;;5059342;28;20027;-67
2021/03/07 06:33:58;;;;;;;22.23;14.30;;;2.30;99.90;;;;;;5062016;28;20021;-65
2021/03/07 06:36:25;;;;;;;23.83;14.88;;;2.30;99.90;;;;;;5069946;28;20024;-67
2021/03/07 06:38:54;;;;;;;24.25;14.63;;;2.30;99.90;;;;;;5076577;28;20524;-67
2021/03/07 06:41:25;;;;;;;24.02;15.18;;;2.30;99.90;;;;;;5076630;28;20097;-65
2021/03/07 06:43:51;;;;;;;23.98;14.55;;;2.30;99.90;;;;;;5074086;28;20107;-67
2021/03/07 06:46:32;;;;;;;27.45;17.55;;;2.30;99.90;;;;;;5069728;28;20024;-67
2021/03/07 06:48:58;;;;;;;25.38;15.60;;;2.30;99.90;;;;;;5073600;28;20355;-66
2021/03/07 06:51:32;;;;;;;24.65;15.20;;;2.30;99.90;;;;;;5066163;28;20029;-64
2021/03/07 06:53:59;;;;;;;27.25;15.20;;;2.40;99.90;;;;;;5028662;28;20037;-67
2021/03/07 06:56:46;;;;;;;20.90;15.52;;;2.50;99.90;;;;;;5064994;28;20033;-66
2021/03/07 06:59:17;;;;;;;26.65;15.48;;;2.60;99.90;;;;;;5064466;28;20027;-66
2021/03/07 07:01:47;;;;;;;20.80;15.73;;;2.60;99.90;;;;;;5065187;28;20704;-69
2021/03/07 07:04:15;;;;;;;23.38;14.77;;;2.60;99.90;;;;;;5066839;28;20036;-67
2021/03/07 07:06:42;;;;;;;27.10;15.98;;;2.70;99.90;;;;;;5043824;28;20036;-69
2021/03/07 07:09:10;;;;;;;28.23;15.57;;;2.60;99.90;;;;;;5056587;28;20469;-67
2021/03/07 07:11:47;;;;;;;23.63;16.17;;;2.60;99.90;;;;;;5038873;28;20036;-68
2021/03/07 07:14:14;;;;;;;23.08;15.45;;;2.60;99.90;;;;;;5064707;28;20124;-69
2021/03/07 07:16:40;;;;;;;25.58;15.77;;;2.60;99.90;;;;;;5069242;28;20028;-67
2021/03/07 07:19:06;;;;;;;18.05;14.27;;;2.70;99.90;;;;;;5072006;28;20025;-69
2021/03/07 07:21:31;;;;;;;22.85;14.30;;;2.80;99.90;;;;;;5077135;28;20029;-66
2021/03/07 07:23:57;;;;;;;23.52;14.48;;;3.00;99.90;;;;;;5069948;28;20025;-68
2021/03/07 07:26:23;;;;;;;28.45;14.82;;;3.10;99.90;;;;;;5065261;28;20429;-71
2021/03/07 07:28:49;;;;;;;26.73;16.30;;;3.00;99.90;;;;;;5044175;28;20114;-69
2021/03/07 07:31:56;;;;;;;24.67;15.93;;;3.00;99.90;;;;;;5034831;28;20389;-66
2021/03/07 07:34:36;;;;;;;23.60;14.93;;;3.00;99.90;;;;;;4941379;28;20027;-69
2021/03/07 07:37:07;;;;;;;20.92;13.82;;;3.00;99.90;;;;;;5048299;28;20112;-69
2021/03/07 07:39:36;;;;;;;27.92;13.55;;;2.90;99.90;;;;;;5068946;28;20089;-65
2021/03/07 07:42:19;;;;;;;23.50;13.80;;;2.90;99.90;;;;;;5067142;28;20025;-69
2021/03/07 07:44:46;;;;;;;18.52;13.18;;;2.90;99.90;;;;;;5065590;28;20028;-70
2021/03/07 07:47:13;;;;;;;21.33;14.10;;;3.00;99.90;;;;;;5083965;28;20043;-71
2021/03/07 07:50:08;;;;;;;17.05;12.13;;;3.10;99.90;;;;;;5078519;28;20075;-67
2021/03/07 07:52:38;;;;;;;19.38;12.25;;;3.30;99.90;;;;;;5072792;28;20154;-69
2021/03/07 07:55:11;;;;;;;16.63;12.18;;;3.40;99.90;;;;;;5070371;28;20107;-69
2021/03/07 07:57:41;;;;;;;18.33;11.75;;;3.30;99.90;;;;;;5070438;28;20151;-74
2021/03/07 08:00:11;;;;;;;17.88;11.70;;;3.30;99.90;;;;;;5051804;28;20044;-71
2021/03/07 08:02:51;;;;;;;14.43;11.10;;;3.40;99.90;;;;;;5064872;28;20021;-68
2021/03/07 08:05:40;;;;;;;15.73;10.00;;;3.40;99.90;;;;;;5053797;28;20043;-69
2021/03/07 08:08:10;;;;;;;14.77;10.55;;;3.40;99.90;;;;;;5055122;28;20043;-68
2021/03/07 08:10:45;;;;;;;19.35;10.23;;;3.60;99.90;;;;;;5067787;28;20052;-68
2021/03/07 08:13:16;;;;;;;15.10;9.45;;;3.90;99.90;;;;;;5059719;28;20099;-69
2021/03/07 08:15:41;;;;;;;14.60;9.60;;;4.10;99.90;;;;;;5071780;28;20599;-70
2021/03/07 08:18:07;;;;;;;17.63;11.52;;;4.10;99.90;;;;;;5063554;28;20048;-68
2021/03/07 08:20:40;;;;;;;18.73;10.90;;;4.20;99.90;;;;;;5068953;28;20071;-68
2021/03/07 08:23:18;;;;;;;17.25;10.73;;;4.40;99.90;;;;;;5061971;28;20021;-68
2021/03/07 08:25:49;;;;;;;13.90;9.43;;;4.50;99.90;;;;;;5060303;28;20204;-70
2021/03/07 08:28:31;;;;;;;15.53;9.17;;;4.50;99.90;;;;;;5067894;28;20552;-63
2021/03/07 08:30:58;;;;;;;13.93;10.33;;;4.80;99.90;;;;;;5068655;28;20131;-70
2021/03/07 08:33:26;;;;;;;14.18;8.85;;;5.00;99.90;;;;;;5043633;28;20095;-66
2021/03/07 08:36:19;;;;;;;10.82;7.63;;;4.90;99.90;;;;;;5068780;28;20031;-68
2021/03/07 08:38:53;;;;;;;10.20;7.45;;;4.80;99.90;;;;;;5059787;28;20032;-68
2021/03/07 08:41:42;;;;;;;10.88;6.60;;;4.90;99.90;;;;;;5062249;28;20036;-68
2021/03/07 08:44:12;;;;;;;11.70;6.78;;;5.10;99.90;;;;;;5064337;28;20033;-68
2021/03/07 08:46:40;;;;;;;9.32;6.65;;;5.20;99.90;;;;;;5051364;28;20024;-68
2021/03/07 08:49:18;;;;;;;12.52;7.20;;;5.10;99.90;;;;;;5061046;28;20028;-67
2021/03/07 08:51:48;;;;;;;10.20;7.20;;;5.20;99.90;;;;;;5062371;28;20040;-67
2021/03/07 08:54:22;;;;;;;11.95;7.13;;;5.30;99.90;;;;;;5066137;28;20023;-67
2021/03/07 08:56:53;;;;;;;12.07;6.38;;;5.50;99.90;;;;;;5047284;28;20078;-68
2021/03/07 08:59:25;;;;;;;11.00;5.88;;;5.20;99.90;;;;;;5067480;28;20025;-65
2021/03/07 09:01:51;;;;;;;12.85;5.72;;;5.30;99.90;;;;;;5078207;28;20035;-68
2021/03/07 09:04:16;;;;;;;13.18;6.03;;;5.00;99.90;;;;;;5066231;28;20037;-67
2021/03/07 09:06:46;;;;;;;10.88;5.72;;;5.00;99.90;;;;;;5056959;28;20040;-68
2021/03/07 09:09:20;;;;;;;7.97;5.32;;;5.30;99.90;;;;;;5052414;28;20054;-66
2021/03/07 09:12:02;;;;;;;8.52;5.05;;;5.20;99.90;;;;;;5067288;28;20020;-67
2021/03/07 09:14:37;;;;;;;10.65;6.30;;;5.40;99.90;;;;;;5063690;28;20025;-69
2021/03/07 09:17:05;;;;;;;7.95;5.85;;;5.40;99.90;;;;;;5050047;28;20033;-67
2021/03/07 09:19:41;;;;;;;9.30;5.70;;;5.30;99.90;;;;;;5064690;28;20024;-68
2021/03/07 09:22:22;;;;;;;7.60;5.68;;;5.30;99.90;;;;;;5065840;28;20024;-69
2021/03/07 09:25:01;;;;;;;10.02;5.75;;;5.60;99.90;;;;;;5066907;28;20021;-67
2021/03/07 09:27:30;;;;;;;7.88;6.00;;;6.20;99.90;;;;;;5065700;28;20385;-67
2021/03/07 09:30:07;;;;;;;8.68;5.72;;;6.40;99.90;;;;;;5065440;28;20086;-69
2021/03/07 09:32:45;;;;;;;12.25;6.00;;;6.90;99.90;;;;;;5068267;28;20020;-68
2021/03/07 09:35:27;;;;;;;7.63;5.32;;;6.90;97.80;;;;;;5065703;28;20050;-69
2021/03/07 09:38:05;;;;;;;10.32;6.82;;;7.00;96.40;;;;;;5064225;28;20538;-67
2021/03/07 09:40:36;;;;;;;11.77;5.90;;;6.60;97.50;;;;;;5061555;28;20474;-68
2021/03/07 09:43:06;;;;;;;10.45;6.20;;;6.30;95.50;;;;;;5066512;28;20020;-68
2021/03/07 09:45:32;;;;;;;14.35;6.13;;;5.80;95.50;;;;;;5065464;28;20561;-69
2021/03/07 09:47:58;;;;;;;10.98;6.28;;;5.50;95.40;;;;;;5059806;28;20032;-68
2021/03/07 09:50:24;;;;;;;7.28;5.35;;;5.40;96.80;;;;;;5064721;28;20064;-68
2021/03/07 09:52:54;;;;;;;9.25;5.70;;;5.70;96.30;;;;;;5058240;28;20063;-68
2021/03/07 09:55:34;;;;;;;7.57;5.20;;;6.00;96.50;;;;;;5047386;28;20051;-69
2021/03/07 09:58:05;;;;;;;9.32;5.60;;;6.10;94.80;;;;;;5054238;28;20036;-67
2021/03/07 10:00:32;;;;;;;11.70;6.00;;;6.10;94.10;;;;;;5063516;28;20490;-70
2021/03/07 10:02:58;;;;;;;11.68;6.20;;;6.20;93.70;;;;;;5059599;28;20045;-66
2021/03/07 10:05:24;;;;;;;10.57;6.00;;;5.80;93.10;;;;;;5069665;28;20052;-68
2021/03/07 10:07:49;;;;;;;10.10;6.00;;;5.80;94.00;;;;;;5067904;28;20397;-69
2021/03/07 10:10:24;;;;;;;9.05;5.75;;;5.80;94.30;;;;;;5060438;28;20239;-69
2021/03/07 10:12:54;;;;;;;9.88;5.35;;;6.00;94.50;;;;;;5078446;28;20118;-69
2021/03/07 10:15:40;;;;;;;9.82;4.80;;;5.90;93.30;;;;;;5070888;28;20229;-68
2021/03/07 10:18:12;;;;;;;9.95;5.93;;;5.60;92.70;;;;;;5071006;28;20579;-69
2021/03/07 10:20:39;;;;;;;11.45;5.47;;;5.60;93.10;;;;;;5070326;28;20029;-69
2021/03/07 10:23:05;;;;;;;17.60;6.07;;;5.90;93.40;;;;;;5070731;28;20024;-68
2021/03/07 10:25:36;;;;;;;9.75;5.40;;;5.90;92.70;;;;;;5053565;28;20425;-65
2021/03/07 10:28:10;;;;;;;6.38;5.00;;;5.60;93.30;;;;;;5053123;28;20074;-67
2021/03/07 10:30:40;;;;;;;7.63;4.97;;;5.60;93.60;;;;;;5057142;28;20048;-66
2021/03/07 10:33:12;;;;;;;7.95;5.07;;;5.60;93.10;;;;;;5061860;28;20064;-67
2021/03/07 10:35:39;;;;;;;8.13;4.80;;;5.70;93.00;;;;;;5052357;28;20082;-67
2021/03/07 10:38:05;;;;;;;9.98;5.35;;;5.50;94.00;;;;;;5063893;28;20032;-69
2021/03/07 10:40:33;;;;;;;9.38;5.15;;;5.60;94.60;;;;;;5053403;28;20032;-66
2021/03/07 10:43:04;;;;;;;12.05;5.10;;;5.60;93.90;;;;;;5068331;28;20040;-70
2021/03/07 10:45:38;;;;;;;8.30;5.43;;;5.80;94.30;;;;;;5060786;28;20449;-68
2021/03/07 10:48:05;;;;;;;10.50;5.80;;;5.70;93.90;;;;;;5041481;28;20024;-67
2021/03/07 10:50:30;;;;;;;9.30;4.88;;;5.60;94.80;;;;;;5066154;28;20119;-70
2021/03/07 10:52:57;;;;;;;7.25;4.30;;;5.70;94.40;;;;;;5066501;28;20150;-68
2021/03/07 10:55:23;;;;;;;9.13;4.40;;;5.60;95.00;;;;;;5061989;28;20036;-66
2021/03/07 10:57:49;;;;;;;8.50;4.20;;;5.80;95.00;;;;;;5064311;28;20035;-66
2021/03/07 11:00:17;;;;;;;7.53;4.28;;;5.90;94.30;;;;;;5068966;28;20052;-67
2021/03/07 11:02:45;;;;;;;9.57;4.90;;;5.80;94.60;;;;;;5068158;28;20040;-70
2021/03/07 11:05:16;;;;;;;7.75;4.72;;;5.80;95.20;;;;;;5056456;28;20032;-66
2021/03/07 11:07:44;;;;;;;9.27;4.82;;;5.80;95.90;;;;;;5056389;28;20043;-69
2021/03/07 11:10:12;;;;;;;9.15;5.25;;;5.70;94.80;;;;;;5057399;28;20028;-69
2021/03/07 11:12:38;;;;;;;7.70;4.68;;;5.40;95.40;;;;;;5065849;28;20374;-71
2021/03/07 11:15:05;;;;;;;8.15;4.32;;;5.50;95.60;;;;;;5068120;28;20052;-69
2021/03/07 11:17:31;;;;;;;8.10;4.10;;;5.60;95.60;;;;;;5068336;28;20573;-66
2021/03/07 11:19:57;;;;;;;6.03;3.80;;;5.70;94.80;;;;;;5068157;28;20103;-69
2021/03/07 11:22:22;;;;;;;7.95;4.47;;;5.80;94.70;;;;;;5066276;28;20032;-69
2021/03/07 11:24:48;;;;;;;7.03;4.43;;;5.50;94.90;;;;;;5048884;28;20033;-71
2021/03/07 11:27:14;;;;;;;8.23;4.53;;;5.40;95.30;;;;;;5064367;28;20030;-69
2021/03/07 11:29:39;;;;;;;13.32;4.90;;;5.60;95.20;;;;;;5068759;28;20380;-66
2021/03/07 11:32:05;;;;;;;8.25;5.30;;;5.90;95.00;;;;;;5069147;28;20473;-71
2021/03/07 11:34:31;;;;;;;8.43;5.45;;;6.10;94.50;;;;;;5064574;28;21064;-70
2021/03/07 11:36:57;;;;;;;10.02;5.10;;;6.10;94.50;;;;;;5069979;28;20067;-71
2021/03/07 11:39:22;;;;;;;8.32;5.50;;;6.20;94.10;;;;;;5047456;28;20492;-72
2021/03/07 11:41:48;;;;;;;6.13;4.75;;;5.90;94.30;;;;;;5063436;28;20028;-69
2021/03/07 11:44:14;;;;;;;9.02;5.22;;;5.80;95.00;;;;;;5056261;28;20057;-70
2021/03/07 11:46:39;;;;;;;8.90;4.57;;;5.80;94.50;;;;;;5060385;28;20125;-71
2021/03/07 11:49:05;;;;;;;6.90;4.80;;;5.60;94.40;;;;;;5055977;28;21103;-68
2021/03/07 11:51:30;;;;;;;5.72;4.03;;;5.60;95.10;;;;;;5059056;28;20029;-70
2021/03/07 11:53:57;;;;;;;9.50;4.25;;;5.80;94.90;;;;;;5069462;28;20534;-70
2021/03/07 11:56:23;;;;;;;6.93;4.13;;;6.00;94.60;;;;;;5058139;28;20028;-72
2021/03/07 11:58:48;;;;;;;11.68;4.15;;;6.20;94.10;;;;;;5064431;28;20055;-70
2021/03/07 12:01:14;;;;;;;11.15;4.60;;;6.20;93.50;;;;;;5058269;28;20017;-68
2021/03/07 12:03:39;;;;;;;7.50;4.57;;;6.30;93.90;;;;;;5061202;28;20043;-71
2021/03/07 12:06:05;;;;;;;6.30;4.38;;;6.10;93.40;;;;;;5068471;28;20585;-69
2021/03/07 12:08:30;;;;;;;9.73;5.15;;;6.10;94.50;;;;;;5072589;28;20447;-69
2021/03/07 12:10:56;;;;;;;9.20;4.78;;;6.10;93.50;;;;;;5060929;28;20087;-69
2021/03/07 12:13:21;;;;;;;5.95;4.30;;;6.20;93.90;;;;;;5067961;28;20025;-67
2021/03/07 12:15:47;;;;;;;7.28;4.80;;;6.10;94.00;;;;;;5076359;28;20021;-69
2021/03/07 12:18:13;;;;;;;8.15;4.55;;;6.30;94.60;;;;;;5084613;28;20104;-69
2021/03/07 12:20:38;;;;;;;5.97;4.28;;;6.40;94.50;;;;;;5085316;28;20016;-70
2021/03/07 12:23:06;;;;;;;7.95;4.40;;;6.40;94.20;;;;;;5068391;28;20648;-67
2021/03/07 12:25:32;;;;;;;7.45;4.47;;;6.20;93.30;;;;;;5069428;28;20024;-71
2021/03/07 12:27:59;;;;;;;9.32;4.30;;;6.20;93.50;;;;;;5065990;28;20047;-68
2021/03/07 12:30:25;;;;;;;8.13;4.30;;;5.90;93.60;;;;;;5069817;28;20525;-68
2021/03/07 12:32:50;;;;;;;5.18;3.40;;;6.00;94.10;;;;;;5061144;28;20024;-71
2021/03/07 12:35:16;;;;;;;5.00;3.40;;;6.40;93.40;;;;;;5070635;28;20055;-67
2021/03/07 12:37:41;;;;;;;8.65;4.63;;;6.30;93.60;;;;;;5068986;28;20036;-69
2021/03/07 12:40:08;;;;;;;8.65;4.32;;;6.30;93.90;;;;;;5066127;28;20139;-72
2021/03/07 12:42:33;;;;;;;8.40;4.40;;;6.20;94.10;;;;;;5067627;28;20024;-69
2021/03/07 12:44:59;;;;;;;8.60;3.40;;;5.90;93.80;;;;;;5085493;28;20074;-69
2021/03/07 12:47:25;;;;;;;5.00;3.75;;;6.00;93.90;;;;;;5069562;28;20053;-71
2021/03/07 12:49:56;;;;;;;6.28;3.35;;;6.00;94.00;;;;;;5065445;28;20052;-70
2021/03/07 12:52:22;;;;;;;6.13;3.58;;;6.00;94.50;;;;;;5067479;28;20025;-65